createdAt,value
2022-11-26T00:00:12.040Z,1018.49
2022-11-26T00:01:12.020Z,1018.54
2022-11-26T00:02:12.047Z,1018.56
2022-11-26T00:03:12.044Z,1018.57
2022-11-26T00:04:11.979Z,1018.60
2022-11-26T00:05:11.988Z,1018.63
2022-11-26T00:06:11.953Z,1018.61
2022-11-26T00:07:11.977Z,1018.62
2022-11-26T00:08:11.931Z,1018.61
2022-11-26T00:09:11.933Z,1018.71
2022-11-26T00:10:11.926Z,1018.68
2022-11-26T00:11:11.923Z,1018.69
2022-11-26T00:12:11.905Z,1018.68
2022-11-26T00:13:11.889Z,1018.73
2022-11-26T00:14:11.880Z,1018.75
2022-11-26T00:15:11.858Z,1018.72
2022-11-26T00:16:11.942Z,1018.70
2022-11-26T00:17:11.850Z,1018.72
2022-11-26T00:18:11.841Z,1018.76
2022-11-26T00:19:11.827Z,1018.77
2022-11-26T00:20:11.814Z,1018.79
2022-11-26T00:21:11.814Z,1018.80
2022-11-26T00:22:11.803Z,1018.84
2022-11-26T00:23:11.772Z,1018.85
2022-11-26T00:24:11.750Z,1018.80
2022-11-26T00:25:11.750Z,1018.85
2022-11-26T00:26:11.752Z,1018.83
2022-11-26T00:27:11.720Z,1018.84
2022-11-26T00:28:11.715Z,1018.86
2022-11-26T00:29:11.729Z,1018.83
2022-11-26T00:30:11.706Z,1018.86
2022-11-26T00:31:11.707Z,1018.83
2022-11-26T00:32:11.852Z,1018.88
2022-11-26T00:33:11.665Z,1018.84
2022-11-26T00:34:11.642Z,1018.92
2022-11-26T00:35:11.641Z,1018.94
2022-11-26T00:36:11.668Z,1018.98
2022-11-26T00:37:11.663Z,1018.99
2022-11-26T00:38:11.601Z,1019.07
2022-11-26T00:39:11.599Z,1019.04
2022-11-26T00:40:11.580Z,1019.06
2022-11-26T00:41:11.596Z,1019.11
2022-11-26T00:42:11.579Z,1019.10
2022-11-26T00:43:11.546Z,1019.10
2022-11-26T00:44:11.552Z,1019.09
2022-11-26T00:45:11.528Z,1019.12
2022-11-26T00:46:11.573Z,1019.18
2022-11-26T00:47:11.500Z,1019.13
2022-11-26T00:48:11.503Z,1019.15
2022-11-26T00:49:11.490Z,1019.15
2022-11-26T00:50:11.497Z,1019.15
2022-11-26T00:51:11.456Z,1019.13
2022-11-26T00:52:11.470Z,1019.08
2022-11-26T00:53:11.470Z,1019.14
2022-11-26T00:54:11.463Z,1019.13
2022-11-26T00:55:11.410Z,1019.16
2022-11-26T00:56:11.421Z,1019.18
2022-11-26T00:57:11.420Z,1019.18
2022-11-26T00:58:11.401Z,1019.21
2022-11-26T00:59:11.370Z,1019.21
2022-11-26T01:00:11.359Z,1019.24
2022-11-26T01:01:11.417Z,1019.28
2022-11-26T01:02:11.434Z,1019.29
2022-11-26T01:03:11.361Z,1019.32
2022-11-26T01:04:11.332Z,1019.28
2022-11-26T01:05:11.317Z,1019.31
2022-11-26T01:06:11.293Z,1019.29
2022-11-26T01:07:11.438Z,1019.31
2022-11-26T01:08:11.272Z,1019.28
2022-11-26T01:09:11.294Z,1019.26
2022-11-26T01:10:11.254Z,1019.26
2022-11-26T01:11:11.238Z,1019.32
2022-11-26T01:12:11.237Z,1019.38
2022-11-26T01:13:11.225Z,1019.33
2022-11-26T01:14:11.208Z,1019.36
2022-11-26T01:15:11.205Z,1019.40
2022-11-26T01:16:11.227Z,1019.37
2022-11-26T01:17:11.202Z,1019.41
2022-11-26T01:18:11.171Z,1019.47
2022-11-26T01:19:11.164Z,1019.46
2022-11-26T01:20:11.148Z,1019.41
2022-11-26T01:21:11.141Z,1019.48
2022-11-26T01:22:11.150Z,1019.51
2022-11-26T01:23:11.138Z,1019.47
2022-11-26T01:24:11.118Z,1019.48
2022-11-26T01:25:11.137Z,1019.50
2022-11-26T01:26:11.073Z,1019.52
2022-11-26T01:27:11.074Z,1019.47
2022-11-26T01:28:11.066Z,1019.51
2022-11-26T01:29:11.055Z,1019.52
2022-11-26T01:30:11.045Z,1019.52
2022-11-26T01:31:11.063Z,1019.56
2022-11-26T01:32:11.105Z,1019.54
2022-11-26T01:33:11.024Z,1019.57
2022-11-26T01:34:10.988Z,1019.57
2022-11-26T01:35:11.082Z,1019.58
2022-11-26T01:36:10.977Z,1019.61
2022-11-26T01:37:10.967Z,1019.59
2022-11-26T01:38:10.938Z,1019.57
2022-11-26T01:39:10.943Z,1019.56
2022-11-26T01:40:10.932Z,1019.60
2022-11-26T01:41:10.959Z,1019.60
2022-11-26T01:42:10.911Z,1019.61
2022-11-26T01:43:10.886Z,1019.61
2022-11-26T01:44:10.890Z,1019.63
2022-11-26T01:45:10.878Z,1019.64
2022-11-26T01:46:10.957Z,1019.63
2022-11-26T01:47:10.859Z,1019.71
2022-11-26T01:48:10.841Z,1019.73
2022-11-26T01:49:10.823Z,1019.70
2022-11-26T01:50:10.820Z,1019.74
2022-11-26T01:51:10.809Z,1019.67
2022-11-26T01:52:10.815Z,1019.70
2022-11-26T01:53:10.775Z,1019.72
2022-11-26T01:54:10.778Z,1019.71
2022-11-26T01:55:10.776Z,1019.72
2022-11-26T01:56:10.756Z,1019.71
2022-11-26T01:57:10.751Z,1019.72
2022-11-26T01:58:10.726Z,1019.72
2022-11-26T01:59:10.724Z,1019.71
2022-11-26T02:00:10.715Z,1019.72
2022-11-26T02:01:10.886Z,1019.73
2022-11-26T02:02:10.730Z,1019.73
2022-11-26T02:03:10.701Z,1019.74
2022-11-26T02:04:10.651Z,1019.73
2022-11-26T02:05:10.657Z,1019.69
2022-11-26T02:06:10.651Z,1019.74
2022-11-26T02:07:10.692Z,1019.67
2022-11-26T02:08:10.635Z,1019.67
2022-11-26T02:09:10.612Z,1019.70
2022-11-26T02:10:10.591Z,1019.69
2022-11-26T02:11:10.591Z,1019.72
2022-11-26T02:12:10.585Z,1019.75
2022-11-26T02:13:10.598Z,1019.73
2022-11-26T02:14:10.586Z,1019.80
2022-11-26T02:15:10.565Z,1019.79
2022-11-26T02:16:10.584Z,1019.79
2022-11-26T02:17:10.529Z,1019.80
2022-11-26T02:18:10.512Z,1019.86
2022-11-26T02:19:10.499Z,1019.86
2022-11-26T02:20:10.506Z,1019.84
2022-11-26T02:21:10.482Z,1019.86
2022-11-26T02:22:10.468Z,1019.84
2022-11-26T02:23:10.449Z,1019.88
2022-11-26T02:24:10.469Z,1019.87
2022-11-26T02:25:10.433Z,1019.86
2022-11-26T02:26:10.410Z,1019.88
2022-11-26T02:27:10.414Z,1019.89
2022-11-26T02:28:10.419Z,1019.87
2022-11-26T02:29:10.429Z,1019.92
2022-11-26T02:30:10.381Z,1019.93
2022-11-26T02:31:10.393Z,1019.91
2022-11-26T02:32:10.477Z,1019.91
2022-11-26T02:33:10.332Z,1019.87
2022-11-26T02:34:10.359Z,1019.90
2022-11-26T02:35:10.331Z,1019.89
2022-11-26T02:36:10.304Z,1019.91
2022-11-26T02:37:10.301Z,1019.88
2022-11-26T02:38:10.330Z,1019.93
2022-11-26T02:39:10.281Z,1019.87
2022-11-26T02:40:10.272Z,1019.86
2022-11-26T02:41:10.272Z,1019.87
2022-11-26T02:42:10.252Z,1019.86
2022-11-26T02:43:10.229Z,1019.90
2022-11-26T02:44:10.263Z,1019.83
2022-11-26T02:45:10.225Z,1019.84
2022-11-26T02:46:10.285Z,1019.86
2022-11-26T02:47:10.195Z,1019.82
2022-11-26T02:48:10.189Z,1019.76
2022-11-26T02:49:10.162Z,1019.75
2022-11-26T02:50:10.163Z,1019.78
2022-11-26T02:51:10.156Z,1019.82
2022-11-26T02:52:10.148Z,1019.82
2022-11-26T02:53:10.152Z,1019.76
2022-11-26T02:54:10.117Z,1019.74
2022-11-26T02:55:10.130Z,1019.83
2022-11-26T02:56:10.099Z,1019.78
2022-11-26T02:57:10.074Z,1019.77
2022-11-26T02:58:10.099Z,1019.79
2022-11-26T02:59:10.047Z,1019.78
2022-11-26T03:00:10.116Z,1019.75
2022-11-26T03:01:10.171Z,1019.77
2022-11-26T03:02:10.046Z,1019.79
2022-11-26T03:03:10.023Z,1019.77
2022-11-26T03:04:10.113Z,1019.78
2022-11-26T03:05:10.004Z,1019.80
2022-11-26T03:06:09.979Z,1019.78
2022-11-26T03:07:10.047Z,1019.79
2022-11-26T03:08:09.974Z,1019.80
2022-11-26T03:09:09.962Z,1019.75
2022-11-26T03:10:09.937Z,1019.76
2022-11-26T03:11:09.949Z,1019.80
2022-11-26T03:12:10.020Z,1019.81
2022-11-26T03:13:09.898Z,1019.75
2022-11-26T03:14:09.902Z,1019.74
2022-11-26T03:15:09.897Z,1019.78
2022-11-26T03:16:09.934Z,1019.66
2022-11-26T03:17:09.872Z,1019.73
2022-11-26T03:18:09.872Z,1019.73
2022-11-26T03:19:09.845Z,1019.74
2022-11-26T03:20:09.829Z,1019.74
2022-11-26T03:21:09.822Z,1019.79
2022-11-26T03:22:09.797Z,1019.78
2022-11-26T03:23:09.802Z,1019.79
2022-11-26T03:24:09.811Z,1019.79
2022-11-26T03:25:09.762Z,1019.83
2022-11-26T03:26:09.806Z,1019.77
2022-11-26T03:27:09.816Z,1019.74
2022-11-26T03:28:09.770Z,1019.82
2022-11-26T03:29:09.722Z,1019.84
2022-11-26T03:30:09.769Z,1019.84
2022-11-26T03:31:09.776Z,1019.88
2022-11-26T03:32:09.691Z,1019.85
2022-11-26T03:33:09.731Z,1019.87
2022-11-26T03:34:09.678Z,1019.84
2022-11-26T03:35:09.697Z,1019.87
2022-11-26T03:36:09.656Z,1019.86
2022-11-26T03:37:09.648Z,1019.87
2022-11-26T03:38:09.620Z,1019.89
2022-11-26T03:39:09.617Z,1019.91
2022-11-26T03:40:09.609Z,1019.91
2022-11-26T03:41:09.667Z,1019.93
2022-11-26T03:42:09.580Z,1019.96
2022-11-26T03:43:09.578Z,1019.96
2022-11-26T03:44:09.595Z,1019.99
2022-11-26T03:45:09.560Z,1019.98
2022-11-26T03:46:09.623Z,1019.93
2022-11-26T03:47:09.535Z,1019.94
2022-11-26T03:48:09.521Z,1019.92
2022-11-26T03:49:09.533Z,1019.93
2022-11-26T03:50:09.501Z,1019.95
2022-11-26T03:51:09.493Z,1019.96
2022-11-26T03:52:09.513Z,1019.97
2022-11-26T03:53:09.464Z,1020.00
2022-11-26T03:54:09.470Z,1020.05
2022-11-26T03:55:09.452Z,1020.09
2022-11-26T03:56:09.451Z,1020.08
2022-11-26T03:57:09.416Z,1020.08
2022-11-26T03:58:09.433Z,1020.08
2022-11-26T03:59:09.405Z,1020.09
2022-11-26T04:00:09.379Z,1020.14
2022-11-26T04:01:09.455Z,1020.15
2022-11-26T04:02:09.372Z,1020.16
2022-11-26T04:03:09.457Z,1020.13
2022-11-26T04:04:09.349Z,1020.15
2022-11-26T04:05:09.447Z,1020.17
2022-11-26T04:06:09.326Z,1020.20
2022-11-26T04:07:09.379Z,1020.22
2022-11-26T04:08:09.312Z,1020.24
2022-11-26T04:09:09.295Z,1020.21
2022-11-26T04:10:09.267Z,1020.30
2022-11-26T04:11:09.258Z,1020.26
2022-11-26T04:12:09.247Z,1020.29
2022-11-26T04:13:09.238Z,1020.29
2022-11-26T04:14:09.241Z,1020.35
2022-11-26T04:15:09.226Z,1020.36
2022-11-26T04:16:09.273Z,1020.35
2022-11-26T04:17:09.205Z,1020.34
2022-11-26T04:18:09.182Z,1020.32
2022-11-26T04:19:09.211Z,1020.41
2022-11-26T04:20:09.171Z,1020.36
2022-11-26T04:21:09.180Z,1020.37
2022-11-26T04:22:09.130Z,1020.36
2022-11-26T04:23:09.145Z,1020.41
2022-11-26T04:24:09.112Z,1020.38
2022-11-26T04:25:09.118Z,1020.46
2022-11-26T04:26:09.108Z,1020.45
2022-11-26T04:27:09.105Z,1020.49
2022-11-26T04:28:09.073Z,1020.52
2022-11-26T04:29:09.079Z,1020.56
2022-11-26T04:30:09.080Z,1020.58
2022-11-26T04:31:09.057Z,1020.57
2022-11-26T04:32:09.132Z,1020.58
2022-11-26T04:33:09.021Z,1020.57
2022-11-26T04:34:09.034Z,1020.57
2022-11-26T04:35:09.006Z,1020.64
2022-11-26T04:36:08.999Z,1020.60
2022-11-26T04:37:08.991Z,1020.63
2022-11-26T04:38:08.996Z,1020.63
2022-11-26T04:39:08.954Z,1020.69
2022-11-26T04:40:08.932Z,1020.64
2022-11-26T04:41:08.950Z,1020.65
2022-11-26T04:42:08.927Z,1020.68
2022-11-26T04:43:08.932Z,1020.71
2022-11-26T04:44:08.899Z,1020.67
2022-11-26T04:45:08.906Z,1020.66
2022-11-26T04:46:08.957Z,1020.69
2022-11-26T04:47:08.866Z,1020.68
2022-11-26T04:48:08.864Z,1020.73
2022-11-26T04:49:08.838Z,1020.77
2022-11-26T04:50:08.836Z,1020.83
2022-11-26T04:51:08.829Z,1020.90
2022-11-26T04:52:08.828Z,1020.94
2022-11-26T04:53:08.831Z,1020.92
2022-11-26T04:54:12.973Z,1020.95
2022-11-26T04:55:08.798Z,1020.96
2022-11-26T04:56:08.780Z,1020.94
2022-11-26T04:57:08.762Z,1020.97
2022-11-26T04:58:08.732Z,1020.92
2022-11-26T04:59:08.759Z,1020.89
2022-11-26T05:00:08.734Z,1020.94
2022-11-26T05:01:08.825Z,1020.92
2022-11-26T05:02:08.690Z,1020.95
2022-11-26T05:03:08.781Z,1020.98
2022-11-26T05:04:08.686Z,1020.96
2022-11-26T05:05:08.681Z,1021.01
2022-11-26T05:06:08.654Z,1021.00
2022-11-26T05:07:08.737Z,1021.00
2022-11-26T05:08:08.651Z,1020.98
2022-11-26T05:09:08.674Z,1020.99
2022-11-26T05:10:08.600Z,1021.00
2022-11-26T05:11:08.620Z,1021.01
2022-11-26T05:12:08.598Z,1021.03
2022-11-26T05:13:08.582Z,1021.03
2022-11-26T05:14:08.562Z,1021.09
2022-11-26T05:15:08.558Z,1021.05
2022-11-26T05:16:08.603Z,1021.09
2022-11-26T05:17:08.530Z,1021.10
2022-11-26T05:18:08.594Z,1021.17
2022-11-26T05:19:08.526Z,1021.15
2022-11-26T05:20:08.510Z,1021.20
2022-11-26T05:21:08.500Z,1021.20
2022-11-26T05:22:08.501Z,1021.20
2022-11-26T05:23:08.460Z,1021.19
2022-11-26T05:24:08.470Z,1021.24
2022-11-26T05:25:08.471Z,1021.26
2022-11-26T05:26:08.446Z,1021.24
2022-11-26T05:27:08.430Z,1021.29
2022-11-26T05:28:08.420Z,1021.31
2022-11-26T05:29:08.403Z,1021.29
2022-11-26T05:30:08.396Z,1021.27
2022-11-26T05:31:08.406Z,1021.27
2022-11-26T05:32:08.415Z,1021.27
2022-11-26T05:33:08.361Z,1021.27
2022-11-26T05:34:08.342Z,1021.29
2022-11-26T05:35:08.333Z,1021.30
2022-11-26T05:36:08.343Z,1021.27
2022-11-26T05:37:08.311Z,1021.28
2022-11-26T05:38:08.311Z,1021.29
2022-11-26T05:39:08.305Z,1021.25
2022-11-26T05:40:08.275Z,1021.24
2022-11-26T05:41:08.300Z,1021.25
2022-11-26T05:42:09.587Z,1021.23
2022-11-26T05:43:08.263Z,1021.30
2022-11-26T05:44:08.241Z,1021.30
2022-11-26T05:45:08.238Z,1021.31
2022-11-26T05:46:08.323Z,1021.30
2022-11-26T05:47:08.197Z,1021.34
2022-11-26T05:48:08.201Z,1021.36
2022-11-26T05:49:08.171Z,1021.34
2022-11-26T05:50:08.194Z,1021.38
2022-11-26T05:51:08.183Z,1021.35
2022-11-26T05:52:08.158Z,1021.39
2022-11-26T05:53:08.126Z,1021.41
2022-11-26T05:54:08.137Z,1021.39
2022-11-26T05:55:08.110Z,1021.42
2022-11-26T05:56:08.107Z,1021.44
2022-11-26T05:57:08.122Z,1021.42
2022-11-26T05:58:08.074Z,1021.44
2022-11-26T05:59:08.083Z,1021.47
2022-11-26T06:00:08.074Z,1021.46
2022-11-26T06:01:08.168Z,1021.45
2022-11-26T06:02:08.133Z,1021.43
2022-11-26T06:03:08.211Z,1021.45
2022-11-26T06:04:08.018Z,1021.50
2022-11-26T06:05:07.996Z,1021.42
2022-11-26T06:06:08.007Z,1021.41
2022-11-26T06:07:08.166Z,1021.44
2022-11-26T06:08:08.004Z,1021.46
2022-11-26T06:09:07.970Z,1021.45
2022-11-26T06:10:07.948Z,1021.48
2022-11-26T06:11:07.948Z,1021.51
2022-11-26T06:12:07.937Z,1021.45
2022-11-26T06:13:07.969Z,1021.49
2022-11-26T06:14:07.907Z,1021.53
2022-11-26T06:15:07.919Z,1021.49
2022-11-26T06:16:07.932Z,1021.50
2022-11-26T06:17:07.870Z,1021.50
2022-11-26T06:18:07.847Z,1021.51
2022-11-26T06:19:07.861Z,1021.48
2022-11-26T06:20:07.843Z,1021.53
2022-11-26T06:21:07.835Z,1021.53
2022-11-26T06:22:07.810Z,1021.59
2022-11-26T06:23:07.819Z,1021.58
2022-11-26T06:24:07.797Z,1021.57
2022-11-26T06:25:07.800Z,1021.58
2022-11-26T06:26:07.764Z,1021.59
2022-11-26T06:27:07.765Z,1021.64
2022-11-26T06:28:07.768Z,1021.56
2022-11-26T06:29:07.768Z,1021.53
2022-11-26T06:30:07.735Z,1021.55
2022-11-26T06:31:07.771Z,1021.56
2022-11-26T06:32:07.704Z,1021.54
2022-11-26T06:33:07.705Z,1021.57
2022-11-26T06:34:07.722Z,1021.54
2022-11-26T06:35:07.674Z,1021.55
2022-11-26T06:36:07.660Z,1021.52
2022-11-26T06:37:07.672Z,1021.57
2022-11-26T06:38:07.666Z,1021.61
2022-11-26T06:39:07.655Z,1021.59
2022-11-26T06:40:07.626Z,1021.64
2022-11-26T06:41:07.596Z,1021.65
2022-11-26T06:42:07.586Z,1021.66
2022-11-26T06:43:07.586Z,1021.66
2022-11-26T06:44:07.657Z,1021.66
2022-11-26T06:45:07.582Z,1021.66
2022-11-26T06:46:07.673Z,1021.66
2022-11-26T06:47:07.555Z,1021.66
2022-11-26T06:48:07.527Z,1021.68
2022-11-26T06:49:07.534Z,1021.68
2022-11-26T06:50:10.716Z,1021.69
2022-11-26T06:51:07.496Z,1021.69
2022-11-26T06:52:07.490Z,1021.70
2022-11-26T06:53:07.476Z,1021.75
2022-11-26T06:54:07.573Z,1021.72
2022-11-26T06:55:07.452Z,1021.72
2022-11-26T06:56:07.432Z,1021.74
2022-11-26T06:57:07.445Z,1021.72
2022-11-26T06:58:07.441Z,1021.77
2022-11-26T06:59:07.417Z,1021.76
2022-11-26T07:00:07.443Z,1021.78
2022-11-26T07:01:07.463Z,1021.81
2022-11-26T07:02:07.435Z,1021.82
2022-11-26T07:03:07.380Z,1021.88
2022-11-26T07:04:07.355Z,1021.87
2022-11-26T07:05:07.355Z,1021.89
2022-11-26T07:06:07.348Z,1021.92
2022-11-26T07:07:07.318Z,1021.89
2022-11-26T07:08:07.315Z,1021.90
2022-11-26T07:09:07.281Z,1021.89
2022-11-26T07:10:07.272Z,1021.84
2022-11-26T07:11:07.284Z,1021.91
2022-11-26T07:12:07.284Z,1021.89
2022-11-26T07:13:07.249Z,1021.86
2022-11-26T07:14:07.232Z,1021.86
2022-11-26T07:15:07.268Z,1021.92
2022-11-26T07:16:07.384Z,1021.90
2022-11-26T07:17:07.258Z,1021.90
2022-11-26T07:18:07.205Z,1021.96
2022-11-26T07:19:07.200Z,1022.00
2022-11-26T07:20:07.212Z,1022.06
2022-11-26T07:21:07.164Z,1022.07
2022-11-26T07:22:07.172Z,1022.11
2022-11-26T07:23:07.136Z,1022.16
2022-11-26T07:24:07.126Z,1022.20
2022-11-26T07:25:12.273Z,1022.24
2022-11-26T07:26:08.119Z,1022.28
2022-11-26T07:27:07.084Z,1022.37
2022-11-26T07:28:07.089Z,1022.36
2022-11-26T07:29:07.060Z,1022.38
2022-11-26T07:30:07.092Z,1022.38
2022-11-26T07:31:11.565Z,1022.38
2022-11-26T07:32:08.056Z,1022.39
2022-11-26T07:33:07.038Z,1022.37
2022-11-26T07:34:07.041Z,1022.40
2022-11-26T07:35:07.042Z,1022.42
2022-11-26T07:36:07.024Z,1022.39
2022-11-26T07:37:07.004Z,1022.40
2022-11-26T07:38:06.981Z,1022.41
2022-11-26T07:39:06.976Z,1022.41
2022-11-26T07:40:06.961Z,1022.42
2022-11-26T07:41:06.955Z,1022.41
2022-11-26T07:42:06.946Z,1022.40
2022-11-26T07:43:06.919Z,1022.37
2022-11-26T07:44:06.969Z,1022.37
2022-11-26T07:45:06.928Z,1022.44
2022-11-26T07:46:06.933Z,1022.45
2022-11-26T07:47:06.874Z,1022.48
2022-11-26T07:48:06.914Z,1022.49
2022-11-26T07:49:06.884Z,1022.48
2022-11-26T07:50:06.880Z,1022.51
2022-11-26T07:51:06.834Z,1022.55
2022-11-26T07:52:06.805Z,1022.57
2022-11-26T07:53:06.795Z,1022.57
2022-11-26T07:54:06.826Z,1022.54
2022-11-26T07:55:12.242Z,1022.52
2022-11-26T07:56:07.810Z,1022.56
2022-11-26T07:57:06.768Z,1022.55
2022-11-26T07:58:06.765Z,1022.57
2022-11-26T07:59:06.762Z,1022.54
2022-11-26T08:00:06.741Z,1022.53
2022-11-26T08:01:06.786Z,1022.56
2022-11-26T08:02:06.762Z,1022.56
2022-11-26T08:03:06.706Z,1022.59
2022-11-26T08:04:06.710Z,1022.61
2022-11-26T08:05:06.722Z,1022.55
2022-11-26T08:06:06.669Z,1022.54
2022-11-26T08:07:06.647Z,1022.54
2022-11-26T08:08:06.720Z,1022.53
2022-11-26T08:09:06.662Z,1022.57
2022-11-26T08:10:06.617Z,1022.52
2022-11-26T08:11:06.607Z,1022.50
2022-11-26T08:12:06.621Z,1022.53
2022-11-26T08:13:06.599Z,1022.51
2022-11-26T08:14:06.605Z,1022.51
2022-11-26T08:15:06.576Z,1022.55
2022-11-26T08:16:06.661Z,1022.52
2022-11-26T08:17:06.564Z,1022.55
2022-11-26T08:18:06.540Z,1022.54
2022-11-26T08:19:06.544Z,1022.54
2022-11-26T08:20:06.502Z,1022.50
2022-11-26T08:21:06.523Z,1022.53
2022-11-26T08:22:06.495Z,1022.52
2022-11-26T08:23:06.497Z,1022.55
2022-11-26T08:24:06.465Z,1022.51
2022-11-26T08:25:06.461Z,1022.53
2022-11-26T08:26:22.798Z,1022.46
2022-11-26T08:27:07.533Z,1022.48
2022-11-26T08:28:06.470Z,1022.50
2022-11-26T08:29:06.442Z,1022.50
2022-11-26T08:30:06.415Z,1022.48
2022-11-26T08:31:06.462Z,1022.41
2022-11-26T08:32:06.503Z,1022.45
2022-11-26T08:33:06.380Z,1022.40
2022-11-26T08:34:06.353Z,1022.40
2022-11-26T08:35:06.375Z,1022.36
2022-11-26T08:36:07.963Z,1022.37
2022-11-26T08:37:06.363Z,1022.41
2022-11-26T08:38:06.329Z,1022.39
2022-11-26T08:39:06.289Z,1022.39
2022-11-26T08:40:06.293Z,1022.39
2022-11-26T08:41:06.299Z,1022.44
2022-11-26T08:42:06.295Z,1022.43
2022-11-26T08:43:06.270Z,1022.44
2022-11-26T08:44:07.770Z,1022.45
2022-11-26T08:45:06.267Z,1022.43
2022-11-26T08:46:06.306Z,1022.45
2022-11-26T08:47:06.243Z,1022.49
2022-11-26T08:48:06.205Z,1022.51
2022-11-26T08:49:06.182Z,1022.44
2022-11-26T08:50:06.200Z,1022.48
2022-11-26T08:51:06.173Z,1022.51
2022-11-26T08:52:06.205Z,1022.54
2022-11-26T08:53:06.166Z,1022.55
2022-11-26T08:54:06.141Z,1022.50
2022-11-26T08:55:06.151Z,1022.53
2022-11-26T08:56:06.114Z,1022.56
2022-11-26T08:57:06.135Z,1022.54
2022-11-26T08:58:06.098Z,1022.58
2022-11-26T08:59:06.085Z,1022.53
2022-11-26T09:00:06.096Z,1022.55
2022-11-26T09:01:06.185Z,1022.61
2022-11-26T09:02:06.061Z,1022.57
2022-11-26T09:03:06.078Z,1022.55
2022-11-26T09:04:06.056Z,1022.59
2022-11-26T09:05:06.034Z,1022.55
2022-11-26T09:06:06.037Z,1022.54
2022-11-26T09:07:06.009Z,1022.55
2022-11-26T09:08:06.077Z,1022.56
2022-11-26T09:09:06.021Z,1022.50
2022-11-26T09:10:05.972Z,1022.48
2022-11-26T09:11:05.971Z,1022.51
2022-11-26T09:12:06.002Z,1022.51
2022-11-26T09:13:05.936Z,1022.52
2022-11-26T09:14:05.978Z,1022.52
2022-11-26T09:15:05.978Z,1022.50
2022-11-26T09:16:05.963Z,1022.48
2022-11-26T09:17:05.905Z,1022.47
2022-11-26T09:18:05.903Z,1022.47
2022-11-26T09:19:05.895Z,1022.45
2022-11-26T09:20:05.877Z,1022.48
2022-11-26T09:21:05.844Z,1022.51
2022-11-26T09:22:05.843Z,1022.52
2022-11-26T09:23:05.811Z,1022.57
2022-11-26T09:24:05.811Z,1022.57
2022-11-26T09:25:05.816Z,1022.62
2022-11-26T09:26:05.821Z,1022.60
2022-11-26T09:27:08.136Z,1022.58
2022-11-26T09:28:05.786Z,1022.61
2022-11-26T09:29:05.764Z,1022.62
2022-11-26T09:30:05.762Z,1022.61
2022-11-26T09:31:05.737Z,1022.66
2022-11-26T09:32:23.433Z,1022.69
2022-11-26T09:33:06.785Z,1022.72
2022-11-26T09:34:05.735Z,1022.75
2022-11-26T09:35:05.707Z,1022.72
2022-11-26T09:36:05.687Z,1022.75
2022-11-26T09:37:05.668Z,1022.72
2022-11-26T09:38:05.680Z,1022.72
2022-11-26T09:39:06.482Z,1022.67
2022-11-26T09:40:05.624Z,1022.69
2022-11-26T09:41:05.647Z,1022.74
2022-11-26T09:42:05.663Z,1022.72
2022-11-26T09:43:05.604Z,1022.69
2022-11-26T09:44:05.603Z,1022.71
2022-11-26T09:45:05.591Z,1022.72
2022-11-26T09:46:05.636Z,1022.73
2022-11-26T09:47:12.055Z,1022.74
2022-11-26T09:48:06.533Z,1022.79
2022-11-26T09:49:05.588Z,1022.77
2022-11-26T09:50:05.541Z,1022.75
2022-11-26T09:51:05.502Z,1022.75
2022-11-26T09:52:05.511Z,1022.72
2022-11-26T09:53:05.487Z,1022.71
2022-11-26T09:54:05.496Z,1022.69
2022-11-26T09:55:05.469Z,1022.69
2022-11-26T09:56:05.479Z,1022.69
2022-11-26T09:57:05.477Z,1022.71
2022-11-26T09:58:05.454Z,1022.72
2022-11-26T09:59:05.438Z,1022.70
2022-11-26T10:00:05.412Z,1022.73
2022-11-26T10:01:05.457Z,1022.75
2022-11-26T10:02:05.478Z,1022.78
2022-11-26T10:03:05.393Z,1022.76
2022-11-26T10:04:05.355Z,1022.75
2022-11-26T10:05:05.351Z,1022.78
2022-11-26T10:06:05.364Z,1022.78
2022-11-26T10:07:05.339Z,1022.76
2022-11-26T10:08:05.331Z,1022.79
2022-11-26T10:09:05.322Z,1022.80
2022-11-26T10:10:05.289Z,1022.79
2022-11-26T10:11:05.307Z,1022.76
2022-11-26T10:12:05.301Z,1022.76
2022-11-26T10:13:19.045Z,1022.77
2022-11-26T10:14:06.253Z,1022.75
2022-11-26T10:15:05.271Z,1022.78
2022-11-26T10:16:05.352Z,1022.77
2022-11-26T10:17:05.243Z,1022.80
2022-11-26T10:18:05.223Z,1022.84
2022-11-26T10:19:05.217Z,1022.86
2022-11-26T10:20:05.217Z,1022.83
2022-11-26T10:21:05.204Z,1022.82
2022-11-26T10:22:05.203Z,1022.83
2022-11-26T10:23:05.166Z,1022.82
2022-11-26T10:24:05.145Z,1022.74
2022-11-26T10:25:05.157Z,1022.82
2022-11-26T10:26:05.129Z,1022.81
2022-11-26T10:27:05.122Z,1022.76
2022-11-26T10:28:05.119Z,1022.75
2022-11-26T10:29:05.127Z,1022.81
2022-11-26T10:30:05.093Z,1022.80
2022-11-26T10:31:05.164Z,1022.79
2022-11-26T10:32:05.058Z,1022.79
2022-11-26T10:33:05.062Z,1022.80
2022-11-26T10:34:05.092Z,1022.74
2022-11-26T10:35:05.134Z,1022.75
2022-11-26T10:36:05.048Z,1022.72
2022-11-26T10:37:05.032Z,1022.68
2022-11-26T10:38:04.993Z,1022.73
2022-11-26T10:39:04.975Z,1022.67
2022-11-26T10:40:07.340Z,1022.68
2022-11-26T10:41:04.979Z,1022.70
2022-11-26T10:42:04.957Z,1022.71
2022-11-26T10:43:04.977Z,1022.77
2022-11-26T10:44:04.975Z,1022.74
2022-11-26T10:45:08.327Z,1022.74
2022-11-26T10:46:05.954Z,1022.75
2022-11-26T10:47:04.897Z,1022.73
2022-11-26T10:48:04.880Z,1022.76
2022-11-26T10:49:04.914Z,1022.83
2022-11-26T10:50:25.203Z,1022.80
2022-11-26T10:51:05.885Z,1022.79
2022-11-26T10:52:04.844Z,1022.79
2022-11-26T10:53:04.851Z,1022.83
2022-11-26T10:54:04.820Z,1022.79
2022-11-26T10:55:04.830Z,1022.78
2022-11-26T10:56:04.800Z,1022.80
2022-11-26T10:57:04.785Z,1022.81
2022-11-26T10:58:04.799Z,1022.80
2022-11-26T10:59:04.795Z,1022.80
2022-11-26T11:00:04.752Z,1022.76
2022-11-26T11:01:04.864Z,1022.72
2022-11-26T11:02:04.789Z,1022.65
2022-11-26T11:03:04.827Z,1022.65
2022-11-26T11:04:08.207Z,1022.60
2022-11-26T11:05:04.729Z,1022.66
2022-11-26T11:06:04.691Z,1022.69
2022-11-26T11:07:10.322Z,1022.70
2022-11-26T11:08:05.758Z,1022.70
2022-11-26T11:09:04.675Z,1022.77
2022-11-26T11:10:04.638Z,1022.76
2022-11-26T11:11:04.637Z,1022.77
2022-11-26T11:12:04.646Z,1022.71
2022-11-26T11:13:04.614Z,1022.69
2022-11-26T11:14:04.655Z,1022.67
2022-11-26T11:15:04.610Z,1022.72
2022-11-26T11:16:04.602Z,1022.69
2022-11-26T11:17:04.612Z,1022.69
2022-11-26T11:18:04.590Z,1022.71
2022-11-26T11:19:04.558Z,1022.69
2022-11-26T11:20:04.551Z,1022.67
2022-11-26T11:21:04.530Z,1022.66
2022-11-26T11:22:04.556Z,1022.66
2022-11-26T11:23:04.631Z,1022.66
2022-11-26T11:24:09.077Z,1022.67
2022-11-26T11:25:04.482Z,1022.66
2022-11-26T11:26:04.500Z,1022.62
2022-11-26T11:27:04.492Z,1022.61
2022-11-26T11:28:08.936Z,1022.57
2022-11-26T11:29:05.469Z,1022.56
2022-11-26T11:30:04.432Z,1022.56
2022-11-26T11:31:04.471Z,1022.54
2022-11-26T11:32:04.620Z,1022.58
2022-11-26T11:33:04.424Z,1022.57
2022-11-26T11:34:04.389Z,1022.58
2022-11-26T11:35:04.397Z,1022.56
2022-11-26T11:36:04.379Z,1022.61
2022-11-26T11:37:04.378Z,1022.51
2022-11-26T11:38:04.362Z,1022.56
2022-11-26T11:39:04.321Z,1022.57
2022-11-26T11:40:04.363Z,1022.56
2022-11-26T11:41:04.309Z,1022.57
2022-11-26T11:42:04.319Z,1022.55
2022-11-26T11:43:04.292Z,1022.59
2022-11-26T11:44:04.284Z,1022.59
2022-11-26T11:45:04.270Z,1022.59
2022-11-26T11:46:04.301Z,1022.58
2022-11-26T11:47:04.251Z,1022.58
2022-11-26T11:48:04.230Z,1022.54
2022-11-26T11:49:04.240Z,1022.52
2022-11-26T11:50:04.224Z,1022.60
2022-11-26T11:51:04.226Z,1022.59
2022-11-26T11:52:04.188Z,1022.54
2022-11-26T11:53:04.167Z,1022.54
2022-11-26T11:54:04.244Z,1022.48
2022-11-26T11:55:04.184Z,1022.45
2022-11-26T11:56:04.146Z,1022.45
2022-11-26T11:57:04.131Z,1022.46
2022-11-26T11:58:04.164Z,1022.42
2022-11-26T11:59:04.134Z,1022.46
2022-11-26T12:00:04.138Z,1022.45
2022-11-26T12:01:04.090Z,1022.37
2022-11-26T12:02:04.144Z,1022.40
2022-11-26T12:03:04.113Z,1022.36
2022-11-26T12:04:08.414Z,1022.39
2022-11-26T12:05:05.180Z,1022.39